createdAt,value
2023-04-18T00:00:33.038Z,75.62
2023-04-18T00:03:02.323Z,75.36
2023-04-18T00:05:30.446Z,74.81
2023-04-18T00:07:56.747Z,74.22
2023-04-18T00:10:23.087Z,74.94
2023-04-18T00:12:49.407Z,75.49
2023-04-18T00:15:15.799Z,76.31
2023-04-18T00:17:42.164Z,76.27
2023-04-18T00:20:09.369Z,75.18
2023-04-18T00:22:36.039Z,76.96
2023-04-18T00:25:02.395Z,76.92
2023-04-18T00:27:28.707Z,76.75
2023-04-18T00:29:54.993Z,77.04
2023-04-18T00:32:21.345Z,76.72
2023-04-18T00:34:47.665Z,76.18
2023-04-18T00:37:13.973Z,76.84
2023-04-18T00:39:40.318Z,76.63
2023-04-18T00:42:06.650Z,76.93
2023-04-18T00:44:33.037Z,77.36
2023-04-18T00:46:59.365Z,76.40
2023-04-18T00:49:26.793Z,76.45
2023-04-18T00:51:54.313Z,76.89
2023-04-18T00:54:21.571Z,76.08
2023-04-18T00:56:48.472Z,76.57
2023-04-18T00:59:14.756Z,75.63
2023-04-18T01:01:41.080Z,76.83
2023-04-18T01:04:08.144Z,76.72
2023-04-18T01:06:35.413Z,76.70
2023-04-18T01:09:01.829Z,76.13
2023-04-18T01:11:28.266Z,77.17
2023-04-18T01:14:08.056Z,76.69
2023-04-18T01:16:34.602Z,77.07
2023-04-18T01:19:01.752Z,76.80
2023-04-18T01:21:28.492Z,76.39
2023-04-18T01:23:57.759Z,76.90
2023-04-18T01:26:24.176Z,76.84
2023-04-18T01:28:50.463Z,76.75
2023-04-18T01:31:16.768Z,77.17
2023-04-18T01:33:43.147Z,76.13
2023-04-18T01:36:09.439Z,76.90
2023-04-18T01:38:35.752Z,76.13
2023-04-18T01:41:02.118Z,76.27
2023-04-18T01:43:28.415Z,75.69
2023-04-18T01:45:54.750Z,75.48
2023-04-18T01:48:21.056Z,75.57
2023-04-18T01:50:47.365Z,76.48
2023-04-18T01:53:13.677Z,76.40
2023-04-18T01:55:39.992Z,76.56
2023-04-18T01:58:06.301Z,77.12
2023-04-18T02:00:32.647Z,76.65
2023-04-18T02:02:59.285Z,77.12
2023-04-18T02:05:25.808Z,77.79
2023-04-18T02:07:52.109Z,77.66
2023-04-18T02:10:19.131Z,78.04
2023-04-18T02:12:45.499Z,77.89
2023-04-18T02:15:11.945Z,77.86
2023-04-18T02:17:38.306Z,78.67
2023-04-18T02:20:05.035Z,78.78
2023-04-18T02:22:31.778Z,79.29
2023-04-18T02:24:58.070Z,79.83
2023-04-18T02:27:24.389Z,79.40
2023-04-18T02:29:50.692Z,80.09
2023-04-18T02:32:16.992Z,80.58
2023-04-18T02:34:43.284Z,80.53
2023-04-18T02:37:09.594Z,79.88
2023-04-18T02:39:35.891Z,79.96
2023-04-18T02:42:02.190Z,80.96
2023-04-18T02:44:28.484Z,81.19
2023-04-18T02:46:54.773Z,81.11
2023-04-18T02:49:21.103Z,81.16
2023-04-18T02:51:47.476Z,81.69
2023-04-18T02:54:13.909Z,81.57
2023-04-18T02:56:40.435Z,81.89
2023-04-18T02:59:07.191Z,81.72
2023-04-18T03:01:34.029Z,81.50
2023-04-18T03:04:00.525Z,81.55
2023-04-18T03:06:26.844Z,81.87
2023-04-18T03:08:54.608Z,82.12
2023-04-18T03:11:20.942Z,82.11
2023-04-18T03:13:47.228Z,81.94
2023-04-18T03:16:13.668Z,81.58
2023-04-18T03:18:39.990Z,82.50
2023-04-18T03:21:06.304Z,82.66
2023-04-18T03:23:32.604Z,82.31
2023-04-18T03:25:59.024Z,82.22
2023-04-18T03:28:25.349Z,82.88
2023-04-18T03:30:51.761Z,83.27
2023-04-18T03:33:18.147Z,83.51
2023-04-18T03:35:44.506Z,83.35
2023-04-18T03:38:10.805Z,84.33
2023-04-18T03:40:37.136Z,84.21
2023-04-18T03:43:03.436Z,84.29
2023-04-18T03:45:30.124Z,83.80
2023-04-18T03:47:56.459Z,84.11
2023-04-18T03:50:22.870Z,84.44
2023-04-18T03:52:49.202Z,84.85
2023-04-18T03:55:15.805Z,84.77
2023-04-18T03:57:42.118Z,84.97
2023-04-18T04:00:10.572Z,84.98
2023-04-18T04:02:37.032Z,85.61
2023-04-18T04:05:03.756Z,85.87
2023-04-18T04:07:30.833Z,85.77
2023-04-18T04:09:57.772Z,86.52
2023-04-18T04:12:25.395Z,86.63
2023-04-18T04:14:51.710Z,87.06
2023-04-18T04:17:18.036Z,87.31
2023-04-18T04:19:44.341Z,87.16
2023-04-18T04:22:10.870Z,87.43
2023-04-18T04:24:37.171Z,87.65
2023-04-18T04:27:03.847Z,89.27
2023-04-18T04:29:30.157Z,89.32
2023-04-18T04:31:56.850Z,90.09
2023-04-18T04:34:23.223Z,90.93
2023-04-18T04:36:49.642Z,91.75
2023-04-18T04:39:15.990Z,91.89
2023-04-18T04:41:42.399Z,90.79
2023-04-18T04:44:08.867Z,92.60
2023-04-18T04:46:35.785Z,93.07
2023-04-18T04:49:02.088Z,93.16
2023-04-18T04:51:28.573Z,94.13
2023-04-18T04:53:54.882Z,94.55
2023-04-18T04:56:21.281Z,93.01
2023-04-18T04:58:47.576Z,93.78
2023-04-18T05:01:13.986Z,94.20
2023-04-18T05:03:40.388Z,94.58
2023-04-18T05:06:07.035Z,94.01
2023-04-18T05:08:33.359Z,93.09
2023-04-18T05:11:01.237Z,94.33
2023-04-18T05:13:27.562Z,94.70
2023-04-18T05:15:54.013Z,94.01
2023-04-18T05:18:20.330Z,93.87
2023-04-18T05:20:46.627Z,94.35
2023-04-18T05:23:12.957Z,92.85
2023-04-18T05:25:39.364Z,93.61
2023-04-18T05:28:05.701Z,93.55
2023-04-18T05:30:32.005Z,93.48
2023-04-18T05:32:58.313Z,93.46
2023-04-18T05:35:24.720Z,92.36
2023-04-18T05:37:51.013Z,91.96
2023-04-18T05:40:17.316Z,92.72
2023-04-18T05:42:43.623Z,92.29
2023-04-18T05:45:10.290Z,92.60
2023-04-18T05:47:36.719Z,92.86
2023-04-18T05:50:03.193Z,91.89
2023-04-18T05:52:29.511Z,92.82
2023-04-18T05:54:55.834Z,93.66
2023-04-18T05:57:22.174Z,93.40
2023-04-18T05:59:48.580Z,92.56
2023-04-18T06:02:15.013Z,93.92
2023-04-18T06:04:42.693Z,94.20
2023-04-18T06:07:09.929Z,94.87
2023-04-18T06:09:36.444Z,93.67
2023-04-18T06:12:03.065Z,94.22
2023-04-18T06:14:29.426Z,94.40
2023-04-18T06:16:55.948Z,93.47
2023-04-18T06:19:22.270Z,91.86
2023-04-18T06:21:49.097Z,93.02
2023-04-18T06:24:15.748Z,94.54
2023-04-18T06:26:42.326Z,92.95
2023-04-18T06:29:08.634Z,92.83
2023-04-18T06:31:34.976Z,92.86
2023-04-18T06:34:01.269Z,93.59
2023-04-18T06:36:27.706Z,93.64
2023-04-18T06:38:54.013Z,94.17
2023-04-18T06:41:20.304Z,94.42
2023-04-18T06:43:59.830Z,93.99
2023-04-18T06:46:30.097Z,93.31
2023-04-18T06:48:56.712Z,93.17
2023-04-18T06:51:23.062Z,92.19
2023-04-18T06:53:49.357Z,92.51
2023-04-18T06:56:15.677Z,92.96
2023-04-18T06:58:42.117Z,93.10
2023-04-18T07:01:08.459Z,91.72
2023-04-18T07:03:34.894Z,92.37
2023-04-18T07:06:01.275Z,91.78
2023-04-18T07:08:27.571Z,91.57
2023-04-18T07:10:53.924Z,91.16
2023-04-18T07:13:20.233Z,91.31
2023-04-18T07:15:46.648Z,90.68
2023-04-18T07:18:18.039Z,89.13
2023-04-18T07:20:49.838Z,89.04
2023-04-18T07:23:16.156Z,89.58
2023-04-18T07:25:42.452Z,88.95
2023-04-18T07:28:08.768Z,87.50
2023-04-18T07:30:35.078Z,88.50
2023-04-18T07:33:01.402Z,88.01
2023-04-18T07:35:27.778Z,88.22
2023-04-18T07:37:54.247Z,87.35
2023-04-18T07:40:21.074Z,87.17
2023-04-18T07:42:47.389Z,87.77
2023-04-18T07:45:13.703Z,87.44
2023-04-18T07:47:40.134Z,86.66
2023-04-18T07:50:07.174Z,85.51
2023-04-18T07:52:34.226Z,85.80
2023-04-18T07:55:00.537Z,85.64
2023-04-18T07:57:26.867Z,84.07
2023-04-18T07:59:53.233Z,83.64
2023-04-18T08:02:20.590Z,84.56
2023-04-18T08:04:47.064Z,86.29
2023-04-18T08:07:13.636Z,86.67
2023-04-18T08:09:39.932Z,86.02
2023-04-18T08:12:06.394Z,86.64
2023-04-18T08:14:32.714Z,84.48
2023-04-18T08:16:59.070Z,84.00
2023-04-18T08:19:25.669Z,84.33
2023-04-18T08:21:52.068Z,85.85
2023-04-18T08:24:18.627Z,85.79
2023-04-18T08:26:44.982Z,84.58
2023-04-18T08:29:11.551Z,83.91
2023-04-18T08:31:38.951Z,82.79
2023-04-18T08:34:05.376Z,83.44
2023-04-18T08:36:31.708Z,84.25
2023-04-18T08:38:57.997Z,84.72
2023-04-18T08:41:25.125Z,83.47
2023-04-18T08:43:51.475Z,82.66
2023-04-18T08:46:17.831Z,81.98
2023-04-18T08:48:44.265Z,82.20
2023-04-18T08:51:10.552Z,84.06
2023-04-18T08:53:37.302Z,81.80
2023-04-18T08:56:03.627Z,79.03
2023-04-18T08:58:29.923Z,79.62
2023-04-18T09:00:56.356Z,77.30
2023-04-18T09:03:40.957Z,76.99
2023-04-18T09:06:17.035Z,76.81
2023-04-18T09:08:43.572Z,76.71
2023-04-18T09:11:27.402Z,77.96
2023-04-18T09:13:54.173Z,77.31
2023-04-18T09:16:20.557Z,76.60
2023-04-18T09:19:07.818Z,76.02
2023-04-18T09:21:34.142Z,74.93
2023-04-18T09:24:17.511Z,73.40
2023-04-18T09:26:43.815Z,71.48
2023-04-18T09:29:10.121Z,70.64
2023-04-18T09:31:54.535Z,72.01
2023-04-18T09:34:21.516Z,69.68
2023-04-18T09:37:05.787Z,68.12
2023-04-18T09:39:32.200Z,66.69
2023-04-18T09:41:59.475Z,67.50
2023-04-18T09:44:25.885Z,67.28
2023-04-18T09:46:52.334Z,67.57
2023-04-18T09:49:18.754Z,68.41
2023-04-18T09:51:45.630Z,68.75
2023-04-18T09:54:16.346Z,68.09
2023-04-18T09:56:45.502Z,68.55
2023-04-18T09:59:15.849Z,67.93
2023-04-18T10:01:44.149Z,65.32
2023-04-18T10:04:12.368Z,67.49
2023-04-18T10:06:39.498Z,64.86
2023-04-18T10:09:09.033Z,64.60
2023-04-18T10:11:36.163Z,65.71
2023-04-18T10:14:10.862Z,66.26
2023-04-18T10:16:38.084Z,64.57
2023-04-18T10:19:25.643Z,64.24
2023-04-18T10:21:56.477Z,61.55
2023-04-18T10:24:52.170Z,63.48
2023-04-18T10:27:55.852Z,63.42
2023-04-18T10:30:42.094Z,62.96
2023-04-18T10:33:29.922Z,62.21
2023-04-18T10:36:17.100Z,62.77
2023-04-18T10:38:47.651Z,62.69
2023-04-18T10:41:28.876Z,61.55
2023-04-18T10:44:08.395Z,60.42
2023-04-18T10:46:38.233Z,63.23
2023-04-18T10:49:14.400Z,65.31
2023-04-18T10:51:41.205Z,66.35
2023-04-18T10:54:10.400Z,64.53
2023-04-18T10:56:37.085Z,66.88
2023-04-18T10:59:03.728Z,68.33
2023-04-18T11:01:32.688Z,67.50
2023-04-18T11:04:00.303Z,68.13
2023-04-18T11:06:26.749Z,67.54
2023-04-18T11:09:12.755Z,67.88
2023-04-18T11:11:39.543Z,68.88
2023-04-18T11:14:05.877Z,67.07
2023-04-18T11:16:33.746Z,66.35
2023-04-18T11:19:00.295Z,65.92
2023-04-18T11:21:29.217Z,66.20
2023-04-18T11:23:57.680Z,66.47
2023-04-18T11:26:27.839Z,64.54
2023-04-18T11:28:57.768Z,65.08
2023-04-18T11:31:24.961Z,65.75
2023-04-18T11:33:52.314Z,65.04
2023-04-18T11:36:18.703Z,64.51
2023-04-18T11:38:45.105Z,64.28
2023-04-18T11:41:15.485Z,65.58
2023-04-18T11:43:43.713Z,65.56
2023-04-18T11:46:10.833Z,63.56
2023-04-18T11:48:38.763Z,62.80
2023-04-18T11:51:06.368Z,63.76
2023-04-18T11:53:34.349Z,64.21
2023-04-18T11:56:00.901Z,63.59
2023-04-18T11:58:34.834Z,65.49
2023-04-18T12:01:22.294Z,64.91
2023-04-18T12:04:11.576Z,65.54
2023-04-18T12:06:50.875Z,65.00
2023-04-18T12:09:18.468Z,64.18
2023-04-18T12:11:55.971Z,65.08
2023-04-18T12:14:22.581Z,64.34
2023-04-18T12:16:50.023Z,63.60
2023-04-18T12:19:16.636Z,64.99
2023-04-18T12:22:02.885Z,64.14
2023-04-18T12:24:29.296Z,63.99
2023-04-18T12:26:55.858Z,64.55
2023-04-18T12:29:22.238Z,65.27
2023-04-18T12:31:48.617Z,63.55
2023-04-18T12:34:15.611Z,65.03
2023-04-18T12:36:42.741Z,65.73
2023-04-18T12:39:09.124Z,63.92
2023-04-18T12:41:35.546Z,64.31
2023-04-18T12:44:02.112Z,65.69
2023-04-18T12:46:28.530Z,64.44
2023-04-18T12:48:54.927Z,63.48
2023-04-18T12:51:21.208Z,63.38
2023-04-18T12:53:47.534Z,61.20
2023-04-18T12:56:13.905Z,60.78
2023-04-18T12:58:40.231Z,61.27
2023-04-18T13:01:06.574Z,59.84
2023-04-18T13:03:33.733Z,60.76
2023-04-18T13:06:00.267Z,61.76
2023-04-18T13:08:26.669Z,60.69
2023-04-18T13:10:53.059Z,60.76
2023-04-18T13:13:19.359Z,60.67
2023-04-18T13:15:45.791Z,60.22
2023-04-18T13:18:12.132Z,59.32
2023-04-18T13:20:38.432Z,58.13
2023-04-18T13:23:04.963Z,59.91
2023-04-18T13:25:31.328Z,58.16
2023-04-18T13:27:57.645Z,59.06
2023-04-18T13:30:24.079Z,58.83
2023-04-18T13:32:50.501Z,58.46
2023-04-18T13:35:16.951Z,58.25
2023-04-18T13:37:43.265Z,60.03
2023-04-18T13:40:09.945Z,60.76
2023-04-18T13:42:37.240Z,60.72
2023-04-18T13:45:04.492Z,60.89
2023-04-18T13:47:31.011Z,59.75
2023-04-18T13:49:57.450Z,58.50
2023-04-18T13:52:24.117Z,61.00
2023-04-18T13:54:50.475Z,59.57
2023-04-18T13:57:16.845Z,58.33
2023-04-18T13:59:43.152Z,58.14
2023-04-18T14:02:10.091Z,57.42
2023-04-18T14:04:36.854Z,56.88
2023-04-18T14:07:04.089Z,57.63
2023-04-18T14:09:30.396Z,61.00
2023-04-18T14:11:56.691Z,58.89
2023-04-18T14:14:22.998Z,60.20
2023-04-18T14:16:49.338Z,59.80
2023-04-18T14:19:15.905Z,61.60
2023-04-18T14:21:42.308Z,62.06
2023-04-18T14:24:08.965Z,61.47
2023-04-18T14:26:35.296Z,59.99
2023-04-18T14:29:01.583Z,59.93
2023-04-18T14:31:27.927Z,59.54
2023-04-18T14:33:54.232Z,58.01
2023-04-18T14:36:20.549Z,59.05
2023-04-18T14:38:47.856Z,59.13
2023-04-18T14:41:14.227Z,59.02
2023-04-18T14:43:40.563Z,57.95
2023-04-18T14:46:14.080Z,58.41
2023-04-18T14:48:40.595Z,57.91
2023-04-18T14:51:07.296Z,56.81
2023-04-18T14:53:34.034Z,57.03
2023-04-18T14:56:00.330Z,56.90
2023-04-18T14:58:26.688Z,59.12
2023-04-18T15:00:53.007Z,59.60
2023-04-18T15:03:19.376Z,60.11
2023-04-18T15:05:45.833Z,59.30
2023-04-18T15:08:15.161Z,58.22
2023-04-18T15:10:42.138Z,57.20
2023-04-18T15:13:09.438Z,58.03
2023-04-18T15:15:35.772Z,57.94
2023-04-18T15:18:02.132Z,58.33
2023-04-18T15:20:28.721Z,57.49
2023-04-18T15:22:55.864Z,58.30
2023-04-18T15:25:22.219Z,58.81
2023-04-18T15:27:48.556Z,59.33
2023-04-18T15:30:14.903Z,58.54
2023-04-18T15:32:41.279Z,58.85
2023-04-18T15:35:11.471Z,58.63
2023-04-18T15:37:37.794Z,58.16
2023-04-18T15:40:04.696Z,56.92
2023-04-18T15:42:31.214Z,57.75
2023-04-18T15:44:57.587Z,56.91
2023-04-18T15:47:23.966Z,56.82
2023-04-18T15:49:50.400Z,57.52
2023-04-18T15:52:16.763Z,59.04
2023-04-18T15:54:43.236Z,58.96
2023-04-18T15:57:10.391Z,57.45
2023-04-18T15:59:37.385Z,57.74
2023-04-18T16:02:04.012Z,58.14
2023-04-18T16:04:30.533Z,59.41
2023-04-18T16:06:56.908Z,58.57
2023-04-18T16:09:23.384Z,57.44
2023-04-18T16:11:49.726Z,57.31
2023-04-18T16:14:16.320Z,58.03
2023-04-18T16:16:42.800Z,58.12
2023-04-18T16:19:09.197Z,58.69
2023-04-18T16:21:35.566Z,58.79
2023-04-18T16:24:01.896Z,59.01
2023-04-18T16:26:28.247Z,59.00
2023-04-18T16:28:54.585Z,59.06
2023-04-18T16:31:20.921Z,58.89
2023-04-18T16:33:47.469Z,59.13
2023-04-18T16:36:13.821Z,59.05
2023-04-18T16:38:40.162Z,57.91
2023-04-18T16:41:06.463Z,58.64
2023-04-18T16:43:32.894Z,59.37
2023-04-18T16:45:59.198Z,59.07
2023-04-18T16:48:25.770Z,59.03
2023-04-18T16:50:52.076Z,59.44
2023-04-18T16:53:18.447Z,59.85
2023-04-18T16:55:44.740Z,60.11
2023-04-18T16:58:11.172Z,60.81
2023-04-18T17:00:38.479Z,60.46
2023-04-18T17:03:05.315Z,60.25
2023-04-18T17:05:31.639Z,60.08
2023-04-18T17:07:58.005Z,60.62
2023-04-18T17:10:24.505Z,61.04
2023-04-18T17:12:50.869Z,61.25
2023-04-18T17:15:18.204Z,61.95
2023-04-18T17:17:44.749Z,61.68
2023-04-18T17:20:11.420Z,61.35
2023-04-18T17:22:37.987Z,61.81
2023-04-18T17:25:05.138Z,62.07
2023-04-18T17:27:31.518Z,61.41
2023-04-18T17:29:57.861Z,62.69
2023-04-18T17:32:24.385Z,62.94
2023-04-18T17:34:50.713Z,63.02
2023-04-18T17:37:17.026Z,63.29
2023-04-18T17:39:43.790Z,62.77
2023-04-18T17:42:10.097Z,63.76
2023-04-18T17:44:36.559Z,64.01
2023-04-18T17:47:02.873Z,63.71
2023-04-18T17:49:29.189Z,64.38
2023-04-18T17:51:55.666Z,64.12
2023-04-18T17:54:21.973Z,64.59
2023-04-18T17:56:48.410Z,65.16
2023-04-18T17:59:14.908Z,65.58
2023-04-18T18:01:41.521Z,65.75
2023-04-18T18:04:07.949Z,66.08
2023-04-18T18:06:34.363Z,65.90
2023-04-18T18:09:00.694Z,66.30
2023-04-18T18:11:27.060Z,66.39
2023-04-18T18:13:53.614Z,67.18
2023-04-18T18:16:20.484Z,67.18
2023-04-18T18:18:46.813Z,67.95
2023-04-18T18:21:13.129Z,68.52
2023-04-18T18:23:39.458Z,69.58
2023-04-18T18:26:05.788Z,69.02
2023-04-18T18:28:32.165Z,69.15
2023-04-18T18:30:58.710Z,69.45
2023-04-18T18:33:25.075Z,69.40
2023-04-18T18:35:51.397Z,69.21
2023-04-18T18:38:17.705Z,69.69
2023-04-18T18:40:44.064Z,69.36
2023-04-18T18:43:10.381Z,70.07
2023-04-18T18:45:38.085Z,70.09
2023-04-18T18:48:05.322Z,69.79
2023-04-18T18:50:31.765Z,70.00
2023-04-18T18:52:58.065Z,69.61
2023-04-18T18:55:24.470Z,69.40
2023-04-18T18:57:51.041Z,69.21
2023-04-18T19:00:17.512Z,69.08
2023-04-18T19:02:44.111Z,68.95
2023-04-18T19:05:10.561Z,68.73
2023-04-18T19:07:36.875Z,69.06
2023-04-18T19:10:03.443Z,69.17
2023-04-18T19:12:29.760Z,69.36
2023-04-18T19:14:56.078Z,69.35
2023-04-18T19:17:22.540Z,68.91
2023-04-18T19:19:48.894Z,69.25
2023-04-18T19:22:15.203Z,69.40
2023-04-18T19:24:41.506Z,69.08
2023-04-18T19:27:07.891Z,69.87
2023-04-18T19:29:35.938Z,69.90
2023-04-18T19:32:02.265Z,70.30
2023-04-18T19:34:28.624Z,70.83
2023-04-18T19:36:55.022Z,70.69
2023-04-18T19:39:21.352Z,70.84
2023-04-18T19:41:47.684Z,71.95
2023-04-18T19:44:13.990Z,71.97
2023-04-18T19:46:40.351Z,71.12
2023-04-18T19:49:06.863Z,71.07
2023-04-18T19:51:33.194Z,72.18
2023-04-18T19:53:59.546Z,73.65
2023-04-18T19:56:25.861Z,73.72
2023-04-18T19:58:52.180Z,74.11
2023-04-18T20:01:19.622Z,74.31
2023-04-18T20:03:46.372Z,74.39
2023-04-18T20:06:13.275Z,74.63
2023-04-18T20:08:41.054Z,75.03
2023-04-18T20:11:11.732Z,74.54
2023-04-18T20:13:38.229Z,74.18
2023-04-18T20:16:05.315Z,74.76
2023-04-18T20:18:31.686Z,75.03
2023-04-18T20:20:58.349Z,74.84
2023-04-18T20:23:24.727Z,75.10
2023-04-18T20:25:51.082Z,75.11
2023-04-18T20:28:17.388Z,74.79
2023-04-18T20:30:43.740Z,74.41
2023-04-18T20:33:10.084Z,74.68
2023-04-18T20:35:36.411Z,74.72
2023-04-18T20:38:02.705Z,75.09
2023-04-18T20:40:29.056Z,74.99
2023-04-18T20:42:55.601Z,74.70
2023-04-18T20:45:22.077Z,74.85
2023-04-18T20:47:48.517Z,75.20
2023-04-18T20:50:15.052Z,75.07
2023-04-18T20:52:41.514Z,75.09
2023-04-18T20:55:08.263Z,74.84
2023-04-18T20:57:35.657Z,75.00
2023-04-18T21:00:01.980Z,75.40
2023-04-18T21:02:28.438Z,75.00
2023-04-18T21:04:54.843Z,74.86
2023-04-18T21:07:21.153Z,74.63
2023-04-18T21:09:47.477Z,75.12
2023-04-18T21:12:13.845Z,74.71
2023-04-18T21:14:40.160Z,75.44
2023-04-18T21:17:06.623Z,75.65
2023-04-18T21:19:32.945Z,74.89
2023-04-18T21:21:59.253Z,75.61
2023-04-18T21:24:25.568Z,75.30
2023-04-18T21:26:51.886Z,75.99
2023-04-18T21:29:18.190Z,75.76
2023-04-18T21:31:44.617Z,75.92
2023-04-18T21:34:10.954Z,75.72
2023-04-18T21:36:37.276Z,76.02
2023-04-18T21:39:03.668Z,76.16
2023-04-18T21:41:29.965Z,76.81
2023-04-18T21:43:56.282Z,76.88
2023-04-18T21:46:22.784Z,76.15
2023-04-18T21:48:49.156Z,76.36
2023-04-18T21:51:16.715Z,76.64
2023-04-18T21:53:43.383Z,76.57
2023-04-18T21:56:09.894Z,75.93
2023-04-18T21:58:36.388Z,76.21
2023-04-18T22:01:03.112Z,76.66
2023-04-18T22:03:29.759Z,76.75
2023-04-18T22:05:56.257Z,76.50
2023-04-18T22:08:23.340Z,76.49
2023-04-18T22:10:49.635Z,75.76
2023-04-18T22:13:16.449Z,76.30
2023-04-18T22:15:42.757Z,76.73
2023-04-18T22:18:09.243Z,76.93
2023-04-18T22:20:35.611Z,76.36
2023-04-18T22:23:02.358Z,76.71
2023-04-18T22:25:29.018Z,76.88
2023-04-18T22:27:55.329Z,76.57
2023-04-18T22:30:21.903Z,76.74
2023-04-18T22:32:48.242Z,76.86
2023-04-18T22:35:14.596Z,76.29
2023-04-18T22:37:40.904Z,76.13
2023-04-18T22:40:07.858Z,74.77
2023-04-18T22:42:35.194Z,73.66
2023-04-18T22:45:03.241Z,73.65
2023-04-18T22:47:29.574Z,73.78
2023-04-18T22:49:55.907Z,73.27
2023-04-18T22:52:22.244Z,73.35
2023-04-18T22:54:48.551Z,72.50
2023-04-18T22:57:14.873Z,72.58
2023-04-18T22:59:41.197Z,72.36
2023-04-18T23:02:07.648Z,72.61
2023-04-18T23:04:34.176Z,71.68
2023-04-18T23:07:00.576Z,71.52
2023-04-18T23:09:27.019Z,71.74
2023-04-18T23:11:53.557Z,70.48
2023-04-18T23:14:19.867Z,70.53
2023-04-18T23:16:46.145Z,70.70
2023-04-18T23:19:12.448Z,70.68
2023-04-18T23:21:38.745Z,70.23
2023-04-18T23:24:05.246Z,71.58
2023-04-18T23:26:31.560Z,71.47
2023-04-18T23:28:57.913Z,72.58
2023-04-18T23:31:24.295Z,73.21
2023-04-18T23:33:50.671Z,72.92
2023-04-18T23:36:17.188Z,73.43
2023-04-18T23:38:43.846Z,73.66
2023-04-18T23:41:10.156Z,73.79
2023-04-18T23:43:36.451Z,74.42
2023-04-18T23:46:02.769Z,74.42
2023-04-18T23:48:29.070Z,74.93
2023-04-18T23:50:55.349Z,74.60
2023-04-18T23:53:22.681Z,75.14
2023-04-18T23:55:50.651Z,75.01
2023-04-18T23:58:17.419Z,74.76
